Caraquet, Canada
Current Conditions -  °F | °C
As of 7:00 AM on Sunday 23 Nov 2014 (Local Time) from CZBF Reporting Station
Overcast Overcast  
Wind Chill: 27°   Ceiling: 5000
Heat Index: 34°   Visibility: 15mi
Dew Point: 27°   Wind: 8mph
Humidity: 75%   Direction: 230°SW
Pressure: 29.8"   Gusts: NA
Location:  47.78°N, 64.95°W
Report Text: CZBF 231100Z 23007KT 15SM OVC050 01/M03 A2980 RMK SC8 SLP094
Loading
Personal Weather Stations






























Interactive Weather Map New forecast layout! Learn more

10-Day Weather Forecast

Advertisements
Track Severe Weather on mobile